Time;durP1;ratioP1;P1;durP2;ratioP2;P2;SDS_P1;SDS_P2;PMS_P1;PMS_P2;Temp;Humidity;BMP_temperature;BMP_pressure;BME280_temperature;BME280_humidity;BME280_pressure;Samples;Min_cycle;Max_cycle;Signal;HPM_P1;HPM_P2
2021/04/08 00:01:24;;;;;;;6.63;2.90;;;-0.80;99.90;;;-0.81;100.00;95496.00;2202625;58;26229;-60
2021/04/08 00:04:10;;;;;;;6.13;3.07;;;-0.70;99.90;;;-0.63;100.00;95492.00;2418726;56;26227;-60
2021/04/08 00:06:57;;;;;;;5.87;2.60;;;-0.80;99.90;;;-0.79;100.00;95485.00;2202920;58;26618;-60
2021/04/08 00:09:43;;;;;;;4.97;2.40;;;-0.70;99.90;;;-0.62;100.00;95476.00;2418969;56;26137;-59
2021/04/08 00:12:30;;;;;;;5.13;2.97;;;-0.80;99.90;;;-0.66;100.00;95486.00;2227473;58;26121;-60
2021/04/08 00:15:18;;;;;;;7.27;2.77;;;-0.80;99.90;;;-0.68;100.00;95476.00;2227085;58;26644;-60
2021/04/08 00:18:05;;;;;;;4.40;2.83;;;-0.80;99.90;;;-0.79;100.00;95478.00;2447606;56;26764;-60
2021/04/08 00:20:51;;;;;;;6.83;2.70;;;-0.80;99.90;;;-0.81;100.00;95475.00;2227495;58;26261;-61
2021/04/08 00:23:38;;;;;;;4.33;2.57;;;-0.80;99.90;;;-0.81;100.00;95479.00;2447976;56;26125;-60
2021/04/08 00:26:24;;;;;;;3.03;2.20;;;-0.80;99.90;;;-0.68;100.00;95481.00;2227111;58;25687;-60
2021/04/08 00:29:11;;;;;;;3.50;2.20;;;-0.70;99.90;;;-0.65;100.00;95472.00;2447356;56;26189;-61
2021/04/08 00:31:57;;;;;;;7.53;2.30;;;-0.70;99.90;;;-0.59;100.00;95480.00;2225880;58;26244;-59
2021/04/08 00:34:44;;;;;;;4.40;2.20;;;-0.70;99.90;;;-0.67;100.00;95467.00;2225615;58;26247;-59
2021/04/08 00:37:31;;;;;;;5.80;2.73;;;-0.60;99.90;;;-0.53;100.00;95466.00;2226002;58;26176;-60
2021/04/08 00:40:18;;;;;;;3.17;2.03;;;-0.70;99.90;;;-0.56;100.00;95462.00;2225792;58;26209;-60
2021/04/08 00:43:05;;;;;;;8.00;2.67;;;-0.70;99.90;;;-0.65;100.00;95460.00;2448076;56;26232;-60
2021/04/08 00:45:51;;;;;;;3.70;2.43;;;-0.50;99.90;;;-0.40;100.00;95464.00;2227353;58;26153;-59
2021/04/08 00:48:38;;;;;;;4.60;2.23;;;-0.60;99.90;;;-0.54;100.00;95460.00;2447792;56;26205;-59
2021/04/08 00:51:25;;;;;;;2.63;2.20;;;-0.60;99.90;;;-0.59;100.00;95460.00;2226986;58;26566;-60
2021/04/08 00:54:12;;;;;;;5.00;2.43;;;-0.60;99.90;;;-0.56;100.00;95470.00;2226877;58;26606;-60
2021/04/08 00:56:59;;;;;;;4.17;2.07;;;-0.50;99.90;;;-0.49;100.00;95459.00;2227570;58;26559;-59
2021/04/08 00:59:45;;;;;;;4.53;2.10;;;-0.50;99.90;;;-0.52;100.00;95455.00;2448009;56;26137;-59
2021/04/08 01:02:32;;;;;;;5.60;2.23;;;-0.50;99.90;;;-0.50;100.00;95455.00;2227244;58;26144;-59
2021/04/08 01:05:18;;;;;;;4.50;2.20;;;-0.50;99.90;;;-0.47;100.00;95455.00;2226884;58;26237;-60
2021/04/08 01:08:06;;;;;;;5.10;2.13;;;-0.40;99.90;;;-0.36;100.00;95450.00;2447530;56;26233;-59
2021/04/08 01:10:52;;;;;;;3.73;2.17;;;-0.40;99.90;;;-0.35;100.00;95455.00;2227427;58;26698;-59
2021/04/08 01:13:40;;;;;;;2.53;2.00;;;-0.40;99.90;;;-0.38;100.00;95458.00;2448529;56;26169;-59
2021/04/08 01:16:39;;;;;;;5.50;2.03;;;-0.50;99.90;;;-0.44;100.00;95457.00;2226984;58;26237;-59
2021/04/08 01:20:06;;;;;;;4.97;2.00;;;-0.40;99.90;;;-0.37;100.00;95452.00;2227217;58;26141;-60
2021/04/08 01:23:40;;;;;;;3.40;1.90;;;-0.40;99.90;;;-0.39;100.00;95442.00;2387778;56;26145;-60
2021/04/08 01:27:02;;;;;;;3.07;1.70;;;-0.30;99.90;;;-0.30;100.00;95455.00;2211292;57;26678;-59
2021/04/08 01:30:18;;;;;;;4.20;2.10;;;-0.40;99.90;;;-0.37;100.00;95453.00;2428767;56;26207;-60
2021/04/08 01:33:08;;;;;;;2.30;1.80;;;-0.30;99.90;;;-0.28;100.00;95451.00;2210509;56;26737;-59
2021/04/08 01:35:56;;;;;;;2.67;1.77;;;-0.30;99.90;;;-0.21;100.00;95455.00;2428935;56;26602;-59
2021/04/08 01:38:47;;;;;;;3.77;2.17;;;-0.20;99.90;;;-0.17;100.00;95456.00;2211160;57;26627;-60
2021/04/08 01:41:39;;;;;;;2.20;1.80;;;-0.20;99.90;;;-0.18;100.00;95459.00;2428546;56;26607;-59
2021/04/08 01:44:27;;;;;;;2.43;1.80;;;-0.30;99.90;;;-0.24;100.00;95449.00;2211632;57;26203;-60
2021/04/08 01:47:14;;;;;;;4.87;1.80;;;-0.20;99.90;;;-0.18;100.00;95454.00;2429032;56;26181;-59
2021/04/08 01:50:01;;;;;;;4.03;2.30;;;-0.20;99.90;;;-0.18;100.00;95464.00;2210609;56;26141;-59
2021/04/08 01:52:50;;;;;;;2.10;1.43;;;-0.20;99.90;;;-0.18;100.00;95457.00;2211249;57;26594;-60
2021/04/08 01:55:38;;;;;;;4.10;1.80;;;-0.20;99.90;;;-0.09;100.00;95453.00;2428958;56;26117;-59
2021/04/08 01:58:27;;;;;;;3.60;2.13;;;-0.30;99.90;;;-0.21;100.00;95450.00;2211101;57;26575;-59
2021/04/08 02:01:15;;;;;;;3.27;2.00;;;-0.20;99.90;;;-0.16;100.00;95455.00;2210793;56;26213;-59
2021/04/08 02:04:04;;;;;;;4.23;2.30;;;-0.30;99.90;;;-0.24;100.00;95453.00;2211152;57;26141;-59
2021/04/08 02:06:51;;;;;;;4.30;2.23;;;-0.30;99.90;;;-0.20;100.00;95464.00;2210903;56;26106;-59
2021/04/08 02:09:39;;;;;;;8.57;2.33;;;-0.20;99.90;;;-0.13;100.00;95460.00;2211365;57;26136;-59
2021/04/08 02:12:27;;;;;;;5.40;2.17;;;-0.20;99.90;;;-0.16;100.00;95458.00;2429099;56;26728;-60
2021/04/08 02:15:20;;;;;;;4.23;2.00;;;-0.20;99.90;;;-0.11;100.00;95466.00;2210508;57;26204;-59
2021/04/08 02:18:07;;;;;;;3.57;2.20;;;-0.20;99.90;;;-0.10;100.00;95465.00;2210244;57;26113;-61
2021/04/08 02:20:55;;;;;;;2.80;1.50;;;-0.20;99.90;;;-0.08;100.00;95469.00;2211553;57;26125;-59
2021/04/08 02:23:44;;;;;;;4.87;2.20;;;-0.10;99.90;;;0.04;100.00;95469.00;2428733;56;25087;-59
2021/04/08 02:26:31;;;;;;;3.93;2.00;;;-0.10;99.90;;;0.06;100.00;95463.00;2211439;57;26214;-59
2021/04/08 02:29:20;;;;;;;3.80;1.93;;;-0.10;99.90;;;0.03;100.00;95462.00;2210792;57;26257;-59
2021/04/08 02:32:09;;;;;;;3.00;2.00;;;-0.20;99.90;;;-0.08;100.00;95474.00;2428672;56;26142;-59
2021/04/08 02:34:55;;;;;;;2.83;1.70;;;-0.10;99.90;;;-0.01;100.00;95483.00;2235777;56;26610;-59
2021/04/08 02:37:43;;;;;;;2.57;2.00;;;-0.10;99.90;;;0.05;100.00;95482.00;2236146;56;25072;-59
2021/04/08 02:40:29;;;;;;;3.10;1.80;;;-0.10;99.90;;;0.03;100.00;95475.00;2459234;56;26130;-60
2021/04/08 02:43:16;;;;;;;9.60;3.97;;;-0.10;99.90;;;0.07;100.00;95477.00;2235947;56;25204;-60
2021/04/08 02:46:04;;;;;;;4.20;1.90;;;-0.10;99.90;;;0.04;100.00;95482.00;2459075;56;26143;-60
2021/04/08 02:48:50;;;;;;;4.87;2.07;;;-0.10;99.90;;;0.10;100.00;95480.00;2236148;56;26214;-60
2021/04/08 02:51:45;;;;;;;5.70;2.20;;;-0.10;99.90;;;0.06;100.00;95483.00;2459151;56;26207;-60
2021/04/08 02:54:38;;;;;;;5.63;2.20;;;-0.10;99.90;;;0.09;100.00;95482.00;2236394;56;26223;-61
2021/04/08 02:57:33;;;;;;;4.00;2.00;;;0.00;99.90;;;0.16;100.00;95478.00;2236289;56;26562;-61
2021/04/08 03:00:24;;;;;;;2.80;2.00;;;-0.10;99.90;;;-0.01;100.00;95486.00;2458783;56;26115;-60
2021/04/08 03:03:14;;;;;;;3.10;2.00;;;-0.10;99.90;;;0.13;100.00;95482.00;2235674;56;26601;-60
2021/04/08 03:06:06;;;;;;;5.97;2.20;;;-0.10;99.90;;;0.08;100.00;95494.00;2459198;56;26247;-60
2021/04/08 03:08:55;;;;;;;4.33;2.10;;;-0.20;99.90;;;-0.06;100.00;95492.00;2235690;56;26186;-60
2021/04/08 03:11:44;;;;;;;3.97;2.20;;;-0.20;99.90;;;0.01;100.00;95496.00;2236157;56;26100;-60
2021/04/08 03:14:33;;;;;;;2.40;1.83;;;-0.20;99.90;;;-0.05;100.00;95501.00;2236422;56;26115;-60
2021/04/08 03:17:24;;;;;;;2.30;1.70;;;-0.10;99.90;;;0.05;100.00;95500.00;2189610;57;26140;-59
2021/04/08 03:20:14;;;;;;;2.60;1.87;;;-0.20;99.90;;;-0.04;100.00;95501.00;2402724;57;26593;-60
2021/04/08 03:23:06;;;;;;;3.97;2.10;;;-0.10;99.90;;;0.06;100.00;95504.00;2189868;57;26174;-60
2021/04/08 03:25:53;;;;;;;2.63;1.87;;;-0.10;99.90;;;0.02;100.00;95508.00;2403294;57;26199;-60
2021/04/08 03:28:41;;;;;;;4.13;1.90;;;-0.10;99.90;;;0.02;100.00;95505.00;2236671;56;26557;-60
2021/04/08 03:31:29;;;;;;;2.60;1.97;;;-0.20;99.90;;;-0.03;100.00;95502.00;2236263;56;26503;-61
2021/04/08 03:34:17;;;;;;;3.63;2.03;;;-0.20;99.90;;;-0.04;100.00;95506.00;2236300;56;26538;-60
2021/04/08 03:37:03;;;;;;;5.97;2.00;;;-0.20;99.90;;;-0.08;100.00;95510.00;2236123;56;26118;-60
2021/04/08 03:39:50;;;;;;;3.27;2.07;;;-0.20;99.90;;;-0.09;100.00;95520.00;2459736;56;26609;-60
2021/04/08 03:42:37;;;;;;;3.47;2.00;;;-0.30;99.90;;;-0.16;100.00;95515.00;2236777;56;26126;-60
2021/04/08 03:45:24;;;;;;;3.67;2.07;;;-0.30;99.90;;;-0.11;100.00;95527.00;2459384;56;26171;-60
2021/04/08 03:48:13;;;;;;;6.17;2.47;;;-0.30;99.90;;;-0.13;100.00;95520.00;2236057;56;26558;-60
2021/04/08 03:51:00;;;;;;;6.53;2.50;;;-0.20;99.90;;;-0.07;100.00;95524.00;1951497;56;19172868;-61
2021/04/08 03:53:47;;;;;;;4.50;2.03;;;-0.20;99.90;;;-0.04;100.00;95526.00;2236089;56;26158;-60
2021/04/08 03:56:35;;;;;;;3.47;2.20;;;-0.10;99.90;;;0.04;100.00;95528.00;2459829;56;26183;-60
2021/04/08 03:59:24;;;;;;;5.43;1.90;;;-0.10;99.90;;;0.04;100.00;95519.00;2236368;56;26179;-61
2021/04/08 04:02:12;;;;;;;3.83;2.20;;;-0.10;99.90;;;0.06;100.00;95540.00;2459026;56;26098;-61
2021/04/08 04:04:59;;;;;;;5.83;2.03;;;-0.10;99.90;;;0.13;100.00;95529.00;2235856;56;26779;-60
2021/04/08 04:07:50;;;;;;;2.80;1.90;;;-0.10;99.90;;;0.12;100.00;95531.00;2236475;56;26207;-60
2021/04/08 04:10:37;;;;;;;4.80;1.97;;;0.00;99.90;;;0.18;100.00;95539.00;2236795;56;26743;-60
2021/04/08 04:13:24;;;;;;;3.63;1.90;;;0.10;99.90;;;0.26;100.00;95542.00;2459281;56;26092;-61
2021/04/08 04:16:11;;;;;;;4.50;2.00;;;0.10;99.90;;;0.25;100.00;95553.00;2236387;56;26183;-60
2021/04/08 04:18:57;;;;;;;4.10;2.07;;;0.00;99.90;;;0.24;100.00;95552.00;2459097;56;26150;-60
2021/04/08 04:21:44;;;;;;;4.00;2.17;;;0.10;99.90;;;0.11;100.00;95548.00;2236655;56;26532;-60
2021/04/08 04:24:30;;;;;;;4.03;2.40;;;0.00;99.90;;;0.21;100.00;95554.00;2459755;56;26178;-60
2021/04/08 04:27:17;;;;;;;5.70;2.20;;;0.10;99.90;;;0.34;100.00;95555.00;2236255;56;25677;-61
2021/04/08 04:30:06;;;;;;;3.23;2.20;;;0.00;99.90;;;0.16;100.00;95564.00;2457733;56;26115;-60
2021/04/08 04:32:54;;;;;;;4.50;2.37;;;0.00;99.90;;;0.13;100.00;95572.00;2215755;56;26185;-60
2021/04/08 04:35:41;;;;;;;5.87;2.30;;;-0.10;99.90;;;0.04;100.00;95573.00;2216026;56;26255;-60
2021/04/08 04:38:27;;;;;;;3.70;2.20;;;-0.30;99.90;;;-0.11;100.00;95582.00;2434410;56;26120;-60
2021/04/08 04:41:14;;;;;;;4.53;2.50;;;-0.30;99.90;;;-0.04;100.00;95580.00;2215898;56;26657;-60
2021/04/08 04:44:00;;;;;;;6.33;2.90;;;-0.40;99.90;;;-0.24;100.00;95589.00;2434456;56;26217;-60
2021/04/08 04:46:47;;;;;;;5.43;2.80;;;-0.40;99.90;;;-0.18;100.00;95596.00;2216149;56;26112;-60
2021/04/08 04:49:33;;;;;;;4.30;2.70;;;-0.40;99.90;;;-0.21;100.00;95591.00;2434897;56;26913;-60
2021/04/08 04:52:19;;;;;;;4.10;2.43;;;-0.50;99.90;;;-0.34;100.00;95585.00;2215627;56;26201;-60
2021/04/08 04:55:08;;;;;;;6.33;3.10;;;-0.50;99.90;;;-0.26;100.00;95575.00;2434926;56;26152;-60
2021/04/08 04:57:55;;;;;;;8.40;2.67;;;-0.50;99.90;;;-0.27;100.00;95595.00;2216245;56;26587;-60
2021/04/08 05:00:41;;;;;;;4.07;2.57;;;-0.40;99.90;;;-0.27;100.00;95584.00;2215869;56;26176;-60
2021/04/08 05:03:28;;;;;;;4.50;2.57;;;-0.40;99.90;;;-0.18;100.00;95593.00;2434458;56;26261;-60
2021/04/08 05:06:14;;;;;;;4.03;2.90;;;-0.30;99.90;;;-0.10;100.00;95596.00;2215800;56;26606;-60
2021/04/08 05:09:00;;;;;;;3.97;2.47;;;-0.40;99.90;;;-0.16;100.00;95597.00;2434483;56;26157;-60
2021/04/08 05:11:47;;;;;;;5.90;2.60;;;-0.30;99.90;;;-0.09;100.00;95598.00;2216188;56;26665;-60
2021/04/08 05:14:33;;;;;;;3.87;2.23;;;-0.20;99.90;;;0.12;100.00;95607.00;2435186;56;26100;-62
2021/04/08 05:17:19;;;;;;;5.80;2.50;;;-0.30;99.90;;;-0.05;100.00;95600.00;2215606;56;26547;-60
2021/04/08 05:20:08;;;;;;;4.23;2.57;;;-0.20;99.90;;;-0.04;100.00;95610.00;2215895;56;26669;-60
2021/04/08 05:22:55;;;;;;;4.80;2.43;;;-0.20;99.90;;;0.07;100.00;95609.00;2434634;56;26624;-60
2021/04/08 05:25:42;;;;;;;3.90;2.27;;;-0.10;99.90;;;0.22;100.00;95613.00;2216131;56;26248;-60
2021/04/08 05:28:28;;;;;;;3.53;2.13;;;0.00;99.90;;;0.17;100.00;95613.00;2435010;56;26157;-61
2021/04/08 05:31:15;;;;;;;5.87;2.70;;;0.00;99.90;;;0.26;100.00;95622.00;2216028;56;25588;-60
2021/04/08 05:34:02;;;;;;;7.63;3.00;;;-0.30;99.90;;;-0.10;100.00;95625.00;2434437;56;26257;-60
2021/04/08 05:36:48;;;;;;;6.73;3.30;;;-0.50;99.90;;;-0.27;100.00;95633.00;2216522;56;26164;-60
2021/04/08 05:39:34;;;;;;;8.43;3.10;;;-0.50;99.90;;;-0.26;100.00;95638.00;2434997;56;25609;-60
2021/04/08 05:42:21;;;;;;;7.57;3.90;;;-0.40;99.90;;;-0.18;100.00;95638.00;2216011;56;26223;-60
2021/04/08 05:45:10;;;;;;;7.77;3.50;;;-0.40;99.90;;;-0.14;100.00;95650.00;2434912;56;26149;-60
2021/04/08 05:47:57;;;;;;;6.53;3.37;;;-0.40;99.90;;;0.02;100.00;95651.00;2215847;56;26152;-60
2021/04/08 05:50:43;;;;;;;7.57;3.57;;;-0.30;99.90;;;0.22;100.00;95649.00;2215982;56;26167;-60
2021/04/08 05:53:29;;;;;;;5.97;3.30;;;-0.20;99.90;;;0.23;100.00;95656.00;2434739;56;26220;-61
2021/04/08 05:56:16;;;;;;;5.07;3.63;;;-0.20;99.90;;;0.15;100.00;95657.00;2216106;56;26119;-60
2021/04/08 05:59:03;;;;;;;9.20;3.53;;;-0.40;99.90;;;-0.03;100.00;95670.00;2434641;56;26157;-60
2021/04/08 06:01:49;;;;;;;5.67;2.80;;;-0.40;99.90;;;-0.01;100.00;95676.00;2216269;56;26142;-60
2021/04/08 06:04:36;;;;;;;8.20;3.10;;;-0.20;99.90;;;0.11;100.00;95672.00;2434656;56;26093;-60
2021/04/08 06:07:22;;;;;;;6.47;3.80;;;-0.50;99.90;;;-0.18;100.00;95669.00;2215833;56;26109;-61
2021/04/08 06:10:10;;;;;;;4.50;3.50;;;-0.50;99.90;;;-0.16;100.00;95672.00;2216155;56;26557;-60
2021/04/08 06:12:57;;;;;;;5.57;4.00;;;-0.40;99.90;;;-0.05;100.00;95669.00;2434927;56;26153;-60
2021/04/08 06:15:43;;;;;;;7.43;3.60;;;-0.30;99.90;;;0.11;100.00;95680.00;2216088;56;26634;-60
2021/04/08 06:18:29;;;;;;;7.23;3.90;;;-0.20;99.90;;;0.17;100.00;95677.00;2434399;56;26221;-61
2021/04/08 06:21:16;;;;;;;8.53;3.53;;;-0.10;99.90;;;0.32;100.00;95678.00;2216085;56;26112;-60
2021/04/08 06:24:02;;;;;;;8.53;3.70;;;-0.10;99.90;;;0.32;100.00;95679.00;2434403;56;25070;-61
2021/04/08 06:26:49;;;;;;;7.17;3.10;;;0.10;99.90;;;0.68;100.00;95675.00;2216560;56;25603;-60
2021/04/08 06:29:35;;;;;;;4.53;3.10;;;0.40;99.90;;;1.16;100.00;95679.00;2434411;56;25076;-60
2021/04/08 06:32:21;;;;;;;5.17;2.97;;;0.60;99.90;;;1.58;100.00;95676.00;2215771;56;26256;-60
2021/04/08 06:35:11;;;;;;;4.63;3.50;;;0.80;99.90;;;1.80;100.00;95678.00;2215755;56;26629;-61
2021/04/08 06:37:57;;;;;;;6.13;2.93;;;0.80;99.90;;;1.53;100.00;95688.00;2215759;56;26166;-60
2021/04/08 06:40:43;;;;;;;6.60;3.10;;;0.40;99.90;;;0.74;100.00;95682.00;2216004;56;26706;-60
2021/04/08 06:43:32;;;;;;;8.03;3.33;;;0.40;99.90;;;0.91;100.00;95684.00;2435028;56;26105;-60
2021/04/08 06:46:20;;;;;;;6.83;2.97;;;0.20;99.90;;;0.56;100.00;95693.00;2215444;56;25564;-58
2021/04/08 06:49:19;;;;;;;9.40;4.70;;;0.20;99.90;;;0.65;100.00;95694.00;2434296;56;25202;-58
2021/04/08 06:52:08;;;;;;;14.57;5.83;;;0.10;99.90;;;0.58;100.00;95693.00;2434436;56;26184;-59
2021/04/08 06:54:54;;;;;;;10.83;4.47;;;0.40;99.90;;;1.10;100.00;95700.00;2216261;56;26116;-59
2021/04/08 06:57:42;;;;;;;9.57;4.00;;;0.90;99.90;;;1.72;100.00;95690.00;2434735;56;26085;-59
2021/04/08 07:00:29;;;;;;;5.87;3.43;;;1.00;99.90;;;2.21;100.00;95697.00;2215485;56;26241;-59
2021/04/08 07:03:16;;;;;;;4.00;2.67;;;0.80;99.90;;;1.51;100.00;95701.00;2215322;56;26174;-59
2021/04/08 07:06:03;;;;;;;4.10;2.60;;;0.80;99.90;;;1.39;100.00;95701.00;2434398;56;26168;-59
2021/04/08 07:08:50;;;;;;;8.90;3.50;;;0.80;99.90;;;1.20;100.00;95707.00;2215138;56;26630;-59
2021/04/08 07:11:39;;;;;;;8.20;3.67;;;1.10;99.90;;;1.74;100.00;95696.00;2434719;56;26167;-58
2021/04/08 07:14:26;;;;;;;6.80;4.00;;;1.20;99.90;;;2.06;100.00;95703.00;2215683;56;26107;-59
2021/04/08 07:17:13;;;;;;;4.13;3.00;;;1.30;99.90;;;2.10;100.00;95701.00;2434520;56;26149;-59
2021/04/08 07:19:59;;;;;;;5.47;3.50;;;1.10;99.90;;;1.83;100.00;95702.00;2215886;56;26108;-59
2021/04/08 07:22:45;;;;;;;3.70;2.27;;;1.10;99.90;;;1.82;100.00;95702.00;2434374;56;26112;-58
2021/04/08 07:25:32;;;;;;;6.27;2.70;;;1.00;99.90;;;1.74;100.00;95709.00;2216251;56;26157;-59
2021/04/08 07:28:35;;;;;;;7.43;2.90;;;1.10;99.90;;;1.91;100.00;95706.00;2434570;56;26537;-58
2021/04/08 07:31:26;;;;;;;6.73;2.73;;;1.20;99.90;;;2.08;100.00;95714.00;2434272;56;26212;-59
2021/04/08 07:34:31;;;;;;;4.87;2.57;;;1.30;99.90;;;2.13;100.00;95709.00;2215447;56;25543;-58
2021/04/08 07:37:27;;;;;;;5.23;2.50;;;1.20;99.90;;;1.98;100.00;95719.00;2434510;56;26144;-58
2021/04/08 07:40:19;;;;;;;6.23;2.67;;;1.10;99.90;;;1.76;100.00;95731.00;2434472;56;26158;-59
2021/04/08 07:43:14;;;;;;;4.83;2.40;;;0.80;99.90;;;1.40;100.00;95732.00;2215751;56;26093;-59
2021/04/08 07:46:28;;;;;;;4.60;2.63;;;0.60;99.90;;;1.15;100.00;95740.00;2215571;56;26124;-59
2021/04/08 07:49:29;;;;;;;4.03;2.60;;;0.80;99.90;;;1.54;100.00;95737.00;2215586;56;26201;-58
2021/04/08 07:52:28;;;;;;;6.53;2.37;;;1.20;99.90;;;2.16;100.00;95737.00;2434172;56;26096;-58
2021/04/08 07:55:18;;;;;;;6.50;2.63;;;1.50;99.90;;;2.58;100.00;95741.00;2434650;56;26104;-60
2021/04/08 07:58:07;;;;;;;4.60;2.70;;;1.50;99.90;;;2.33;100.00;95742.00;2215631;56;26564;-58
2021/04/08 08:00:54;;;;;;;4.90;2.50;;;1.20;99.90;;;2.16;100.00;95742.00;2434536;56;26243;-58
2021/04/08 08:03:43;;;;;;;5.53;2.83;;;1.50;99.90;;;2.65;100.00;95748.00;2215654;56;25571;-58
2021/04/08 08:06:36;;;;;;;6.23;3.00;;;2.00;99.90;;;3.28;100.00;95751.00;2434306;56;26101;-58
2021/04/08 08:09:26;;;;;;;4.93;2.50;;;2.20;99.90;;;3.61;100.00;95745.00;2434085;56;26104;-59
2021/04/08 08:12:15;;;;;;;5.13;2.80;;;2.10;99.90;;;3.66;100.00;95751.00;2216049;56;25628;-59
2021/04/08 08:15:32;;;;;;;7.50;2.20;;;2.10;99.90;;;3.34;100.00;95756.00;2434486;56;26162;-58
2021/04/08 08:18:30;;;;;;;6.67;3.00;;;2.10;99.90;;;3.22;100.00;95761.00;2433662;56;27276;-58
2021/04/08 08:21:20;;;;;;;4.90;3.43;;;2.00;99.90;;;3.13;100.00;95760.00;2434585;56;26618;-59
2021/04/08 08:24:10;;;;;;;7.50;3.03;;;1.90;99.90;;;2.80;100.00;95768.00;2215758;56;26218;-59
2021/04/08 08:26:56;;;;;;;8.03;2.70;;;1.90;99.90;;;2.91;100.00;95764.00;2435182;56;26200;-59
2021/04/08 08:29:43;;;;;;;4.77;2.73;;;2.00;99.90;;;3.08;100.00;95764.00;2215736;56;26085;-59
2021/04/08 08:32:29;;;;;;;6.80;2.90;;;2.00;99.90;;;2.79;100.00;95763.00;2215614;56;26117;-58
2021/04/08 08:35:16;;;;;;;6.33;3.13;;;2.10;99.90;;;3.31;100.00;95758.00;2434674;56;26582;-59
2021/04/08 08:38:12;;;;;;;5.27;2.60;;;2.10;99.90;;;3.27;100.00;95764.00;2215470;56;26147;-59
2021/04/08 08:40:58;;;;;;;8.10;3.00;;;2.00;99.90;;;3.15;100.00;95760.00;2216053;56;26086;-59
2021/04/08 08:43:45;;;;;;;6.00;2.93;;;2.20;99.90;;;3.36;100.00;95761.00;2216076;56;26180;-59
2021/04/08 08:46:33;;;;;;;6.00;2.90;;;2.40;99.90;;;4.01;100.00;95756.00;2434186;56;26145;-59
2021/04/08 08:49:29;;;;;;;7.10;3.10;;;2.60;99.90;;;4.10;100.00;95753.00;2215304;56;26193;-60
2021/04/08 08:52:25;;;;;;;4.07;3.00;;;2.80;99.90;;;4.20;100.00;95755.00;2215596;56;26181;-60
2021/04/08 08:55:15;;;;;;;6.33;3.20;;;3.30;99.90;;;5.05;100.00;95757.00;2434567;56;26160;-59
2021/04/08 08:58:02;;;;;;;5.20;3.03;;;3.20;99.90;;;4.57;100.00;95764.00;2215816;56;26544;-59
2021/04/08 09:00:49;;;;;;;4.57;3.23;;;3.10;99.90;;;4.46;100.00;95763.00;2435056;56;26100;-59
2021/04/08 09:03:35;;;;;;;5.67;3.37;;;3.20;99.90;;;4.38;100.00;95762.00;2215574;56;26084;-59
2021/04/08 09:06:22;;;;;;;3.73;2.80;;;3.20;99.90;;;4.44;100.00;95766.00;2434468;56;26097;-60
2021/04/08 09:09:12;;;;;;;4.03;2.70;;;3.40;99.90;;;4.87;100.00;95767.00;2215426;56;26085;-59
2021/04/08 09:12:04;;;;;;;5.50;3.33;;;3.30;99.90;;;4.73;100.00;95767.00;2434643;56;26136;-59
2021/04/08 09:14:54;;;;;;;5.23;3.40;;;3.30;99.90;;;4.88;100.00;95766.00;2215755;56;26635;-59
2021/04/08 09:17:44;;;;;;;4.27;3.27;;;3.80;99.90;;;5.25;100.00;95769.00;2434841;56;26253;-59
2021/04/08 09:20:30;;;;;;;7.83;3.87;;;3.40;99.90;;;5.02;100.00;95769.00;2216264;56;26230;-59
2021/04/08 09:23:18;;;;;;;4.57;3.50;;;3.60;99.90;;;5.12;100.00;95769.00;2215278;56;26172;-60
2021/04/08 09:26:04;;;;;;;5.10;3.33;;;3.70;99.90;;;5.50;100.00;95774.00;2434735;56;26142;-59
2021/04/08 09:28:51;;;;;;;4.47;3.30;;;3.30;99.90;;;4.82;100.00;95777.00;2216386;56;26666;-59
2021/04/08 09:31:38;;;;;;;6.77;3.20;;;3.60;99.90;;;5.18;100.00;95773.00;2434716;56;26140;-59
2021/04/08 09:34:24;;;;;;;4.50;2.90;;;3.80;99.90;;;5.42;100.00;95772.00;2215622;56;26128;-61
2021/04/08 09:37:11;;;;;;;6.77;3.70;;;4.20;99.90;;;5.76;100.00;95770.00;2434819;56;26430;-61
2021/04/08 09:39:57;;;;;;;6.63;3.63;;;4.20;99.90;;;5.55;100.00;95761.00;2216299;56;26161;-59
2021/04/08 09:42:46;;;;;;;5.20;3.70;;;4.10;99.90;;;5.58;100.00;95766.00;2435270;56;26557;-60
2021/04/08 09:45:33;;;;;;;4.97;3.30;;;4.30;99.90;;;6.04;100.00;95759.00;2216082;56;26606;-59
2021/04/08 09:48:23;;;;;;;5.63;3.70;;;4.80;99.90;;;7.26;100.00;95754.00;2215082;56;26748;-59
2021/04/08 09:51:10;;;;;;;4.70;3.20;;;5.20;99.90;;;7.53;100.00;95760.00;2215830;56;26534;-60
2021/04/08 09:54:08;;;;;;;7.30;3.50;;;5.10;99.90;;;7.48;100.00;95753.00;2215645;56;26144;-59
2021/04/08 09:56:55;;;;;;;6.57;3.10;;;4.70;99.90;;;6.57;100.00;95761.00;2215930;56;26116;-59
2021/04/08 09:59:59;;;;;;;6.67;3.30;;;4.80;99.90;;;6.46;100.00;95757.00;2434632;56;26104;-60
2021/04/08 10:02:58;;;;;;;6.13;3.23;;;4.70;99.90;;;6.57;100.00;95759.00;2434448;56;26612;-61
2021/04/08 10:05:45;;;;;;;6.93;3.13;;;5.30;99.90;;;7.90;100.00;95747.00;2216089;56;26084;-60
2021/04/08 10:08:36;;;;;;;6.13;3.37;;;5.60;99.90;;;7.48;97.36;95754.00;2434427;56;26155;-60
2021/04/08 10:11:30;;;;;;;5.47;3.17;;;5.70;99.90;;;7.82;95.82;95745.00;2215837;56;26120;-59
2021/04/08 10:14:25;;;;;;;3.90;3.20;;;6.00;99.90;;;7.45;96.17;95749.00;2215957;56;26108;-59
2021/04/08 10:17:14;;;;;;;5.90;3.27;;;5.50;99.90;;;6.51;95.27;95751.00;2434375;56;26109;-59
2021/04/08 10:20:00;;;;;;;6.47;3.00;;;4.70;99.90;;;5.74;100.00;95753.00;2215118;56;26587;-59
2021/04/08 10:22:47;;;;;;;5.73;3.63;;;4.10;99.90;;;5.05;100.00;95755.00;2431765;56;26604;-59
2021/04/08 10:25:34;;;;;;;6.67;4.40;;;3.90;99.90;;;4.78;100.00;95760.00;2216102;56;26086;-59
2021/04/08 10:28:21;;;;;;;5.23;3.87;;;4.10;99.90;;;5.30;100.00;95751.00;2215521;56;26292;-59
2021/04/08 10:31:22;;;;;;;5.83;3.40;;;4.10;99.90;;;5.28;100.00;95748.00;2434684;56;26149;-59
2021/04/08 10:34:11;;;;;;;6.80;3.70;;;4.00;99.90;;;5.36;100.00;95754.00;2433800;56;26618;-59
2021/04/08 10:36:58;;;;;;;6.50;4.07;;;4.40;99.90;;;6.06;100.00;95744.00;2214604;56;26220;-59
2021/04/08 10:39:44;;;;;;;5.40;3.27;;;5.00;99.90;;;6.84;100.00;95738.00;2214550;56;26311;-58
2021/04/08 10:42:31;;;;;;;5.13;3.73;;;5.60;99.90;;;7.70;100.00;95737.00;2215397;56;26136;-60
2021/04/08 10:45:19;;;;;;;7.80;3.47;;;6.30;99.90;;;8.41;98.96;95736.00;2214727;56;26137;-59
2021/04/08 10:48:09;;;;;;;4.60;3.10;;;6.10;99.90;;;8.51;92.54;95725.00;2215514;56;26272;-59
2021/04/08 10:50:56;;;;;;;5.20;3.40;;;7.80;99.90;;;10.24;65.86;95718.00;2434973;56;26575;-59
2021/04/08 10:53:47;;;;;;;8.27;3.97;;;6.10;99.90;;;7.71;87.84;95728.00;2216179;56;26514;-59
2021/04/08 10:56:33;;;;;;;3.90;3.10;;;7.20;99.90;;;8.68;73.57;95725.00;2434639;56;26104;-60
2021/04/08 10:59:22;;;;;;;7.87;3.60;;;5.90;99.90;;;6.95;100.00;95740.00;2216009;56;26185;-59
2021/04/08 11:02:30;;;;;;;5.77;3.43;;;5.20;99.90;;;6.36;100.00;95740.00;2434129;56;26507;-59
2021/04/08 11:05:19;;;;;;;9.40;3.83;;;4.70;99.90;;;5.63;100.00;95743.00;2430625;56;26618;-59
2021/04/08 11:08:06;;;;;;;5.97;3.77;;;4.50;99.90;;;5.76;100.00;95746.00;2215208;56;26085;-62
2021/04/08 11:10:53;;;;;;;6.57;3.57;;;4.60;99.90;;;5.59;100.00;95742.00;2216109;56;26131;-59
2021/04/08 11:13:39;;;;;;;5.87;3.67;;;4.70;99.90;;;6.00;100.00;95739.00;2434613;56;26607;-59
2021/04/08 11:16:29;;;;;;;4.60;3.30;;;4.80;99.90;;;6.24;100.00;95738.00;2215527;56;26244;-59
2021/04/08 11:19:16;;;;;;;7.33;3.13;;;5.20;99.90;;;6.74;100.00;95733.00;2430852;56;26515;-59
2021/04/08 11:22:03;;;;;;;4.87;3.33;;;5.60;99.90;;;7.18;95.66;95734.00;2215777;56;26645;-59
2021/04/08 11:24:53;;;;;;;5.43;3.43;;;5.50;99.90;;;7.09;100.00;95731.00;2434884;56;26184;-59
2021/04/08 11:27:43;;;;;;;6.67;3.23;;;5.20;99.90;;;6.65;100.00;95733.00;2216200;56;26518;-60
2021/04/08 11:30:34;;;;;;;5.10;3.40;;;5.10;99.90;;;6.41;100.00;95737.00;2215813;56;26197;-60
2021/04/08 11:33:25;;;;;;;5.23;3.40;;;4.70;99.90;;;5.91;100.00;95734.00;2434151;56;26157;-59
2021/04/08 11:36:22;;;;;;;6.20;3.20;;;4.60;99.90;;;5.83;100.00;95733.00;2215820;56;26209;-59
2021/04/08 11:39:11;;;;;;;3.67;3.37;;;4.70;99.90;;;6.05;100.00;95726.00;2434591;56;26213;-60
2021/04/08 11:42:14;;;;;;;6.87;3.77;;;5.10;99.90;;;6.58;100.00;95737.00;2215644;56;26257;-59
2021/04/08 11:45:24;;;;;;;5.13;3.50;;;5.40;99.90;;;6.87;100.00;95732.00;2215769;56;26160;-60
2021/04/08 11:48:11;;;;;;;6.30;3.80;;;5.50;99.90;;;6.99;100.00;95723.00;2215562;56;26145;-59
2021/04/08 11:51:07;;;;;;;6.40;3.53;;;5.80;99.90;;;7.50;100.00;95725.00;2434593;56;26176;-59
2021/04/08 11:53:54;;;;;;;6.00;3.40;;;5.70;99.90;;;7.60;100.00;95732.00;2215323;56;26915;-59